sensor_id;sensor_type;location;lat;lon;timestamp;P1;durP1;ratioP1;P2;durP2;ratioP2
69434;SDS011;56625;54.322;18.582;2024-01-27T00:00:08;9.10;;;0.90;;
69434;SDS011;56625;54.322;18.582;2024-01-27T00:02:37;8.20;;;0.50;;
69434;SDS011;56625;54.322;18.582;2024-01-27T00:05:05;8.70;;;0.70;;
69434;SDS011;56625;54.322;18.582;2024-01-27T00:07:33;7.20;;;0.70;;
69434;SDS011;56625;54.322;18.582;2024-01-27T00:10:02;10.20;;;1.00;;
69434;SDS011;56625;54.322;18.582;2024-01-27T00:12:30;6.60;;;0.80;;
69434;SDS011;56625;54.322;18.582;2024-01-27T00:14:58;13.80;;;1.80;;
69434;SDS011;56625;54.322;18.582;2024-01-27T00:17:27;5.80;;;0.70;;
69434;SDS011;56625;54.322;18.582;2024-01-27T00:19:55;9.00;;;1.00;;
69434;SDS011;56625;54.322;18.582;2024-01-27T00:22:23;10.20;;;1.30;;
69434;SDS011;56625;54.322;18.582;2024-01-27T00:24:52;11.80;;;0.90;;
69434;SDS011;56625;54.322;18.582;2024-01-27T00:27:20;9.60;;;0.80;;
69434;SDS011;56625;54.322;18.582;2024-01-27T00:29:48;5.40;;;0.60;;
69434;SDS011;56625;54.322;18.582;2024-01-27T00:32:16;8.90;;;1.00;;
69434;SDS011;56625;54.322;18.582;2024-01-27T00:34:44;7.60;;;0.60;;
69434;SDS011;56625;54.322;18.582;2024-01-27T00:37:12;7.90;;;0.80;;
69434;SDS011;56625;54.322;18.582;2024-01-27T00:39:40;7.10;;;0.50;;
69434;SDS011;56625;54.322;18.582;2024-01-27T00:42:08;4.10;;;0.30;;
69434;SDS011;56625;54.322;18.582;2024-01-27T00:44:37;3.80;;;0.40;;
69434;SDS011;56625;54.322;18.582;2024-01-27T00:47:05;2.60;;;0.20;;
69434;SDS011;56625;54.322;18.582;2024-01-27T00:49:33;7.10;;;0.60;;
69434;SDS011;56625;54.322;18.582;2024-01-27T00:52:01;5.70;;;0.50;;
69434;SDS011;56625;54.322;18.582;2024-01-27T00:54:29;5.10;;;0.50;;
69434;SDS011;56625;54.322;18.582;2024-01-27T00:56:57;3.30;;;0.30;;
69434;SDS011;56625;54.322;18.582;2024-01-27T00:59:25;7.10;;;0.70;;
69434;SDS011;56625;54.322;18.582;2024-01-27T01:01:53;3.70;;;0.50;;
69434;SDS011;56625;54.322;18.582;2024-01-27T01:04:21;8.50;;;0.80;;
69434;SDS011;56625;54.322;18.582;2024-01-27T01:06:50;2.60;;;0.20;;
69434;SDS011;56625;54.322;18.582;2024-01-27T01:09:18;4.40;;;0.50;;
69434;SDS011;56625;54.322;18.582;2024-01-27T01:11:46;7.90;;;1.10;;
69434;SDS011;56625;54.322;18.582;2024-01-27T01:14:14;6.20;;;0.50;;
69434;SDS011;56625;54.322;18.582;2024-01-27T01:16:42;2.40;;;0.30;;
69434;SDS011;56625;54.322;18.582;2024-01-27T01:19:10;4.50;;;0.50;;
69434;SDS011;56625;54.322;18.582;2024-01-27T01:21:38;5.80;;;0.70;;
69434;SDS011;56625;54.322;18.582;2024-01-27T01:24:06;5.10;;;0.80;;
69434;SDS011;56625;54.322;18.582;2024-01-27T01:26:35;4.20;;;0.30;;
69434;SDS011;56625;54.322;18.582;2024-01-27T01:29:03;3.90;;;0.50;;
69434;SDS011;56625;54.322;18.582;2024-01-27T01:31:31;6.10;;;0.50;;
69434;SDS011;56625;54.322;18.582;2024-01-27T01:33:59;7.50;;;0.70;;
69434;SDS011;56625;54.322;18.582;2024-01-27T01:36:28;3.20;;;0.20;;
69434;SDS011;56625;54.322;18.582;2024-01-27T01:38:56;3.40;;;0.30;;
69434;SDS011;56625;54.322;18.582;2024-01-27T01:41:24;3.90;;;0.30;;
69434;SDS011;56625;54.322;18.582;2024-01-27T01:43:52;6.20;;;0.40;;
69434;SDS011;56625;54.322;18.582;2024-01-27T01:46:21;6.40;;;0.60;;
69434;SDS011;56625;54.322;18.582;2024-01-27T01:48:51;4.00;;;0.40;;
69434;SDS011;56625;54.322;18.582;2024-01-27T01:51:27;3.10;;;0.40;;
69434;SDS011;56625;54.322;18.582;2024-01-27T01:53:58;3.30;;;0.20;;
69434;SDS011;56625;54.322;18.582;2024-01-27T01:56:27;4.50;;;0.40;;
69434;SDS011;56625;54.322;18.582;2024-01-27T01:58:55;4.40;;;0.40;;
69434;SDS011;56625;54.322;18.582;2024-01-27T02:01:24;1.60;;;0.20;;
69434;SDS011;56625;54.322;18.582;2024-01-27T02:03:53;4.40;;;0.40;;
69434;SDS011;56625;54.322;18.582;2024-01-27T02:06:22;4.80;;;0.30;;
69434;SDS011;56625;54.322;18.582;2024-01-27T02:08:51;2.80;;;0.30;;
69434;SDS011;56625;54.322;18.582;2024-01-27T02:11:19;2.00;;;0.10;;
69434;SDS011;56625;54.322;18.582;2024-01-27T02:13:47;1.60;;;0.20;;
69434;SDS011;56625;54.322;18.582;2024-01-27T02:16:16;2.40;;;0.20;;
69434;SDS011;56625;54.322;18.582;2024-01-27T02:18:45;2.10;;;0.20;;
69434;SDS011;56625;54.322;18.582;2024-01-27T02:21:13;4.80;;;0.20;;
69434;SDS011;56625;54.322;18.582;2024-01-27T02:23:44;1.60;;;0.20;;
69434;SDS011;56625;54.322;18.582;2024-01-27T02:26:12;2.70;;;0.10;;
69434;SDS011;56625;54.322;18.582;2024-01-27T02:28:40;3.60;;;0.30;;
69434;SDS011;56625;54.322;18.582;2024-01-27T02:31:08;1.40;;;0.10;;
69434;SDS011;56625;54.322;18.582;2024-01-27T02:33:36;7.90;;;0.60;;
69434;SDS011;56625;54.322;18.582;2024-01-27T02:36:04;1.70;;;0.10;;
69434;SDS011;56625;54.322;18.582;2024-01-27T02:38:32;1.70;;;0.10;;
69434;SDS011;56625;54.322;18.582;2024-01-27T02:41:01;1.80;;;0.10;;
69434;SDS011;56625;54.322;18.582;2024-01-27T02:43:28;1.00;;;0.10;;
69434;SDS011;56625;54.322;18.582;2024-01-27T02:45:56;1.70;;;0.30;;
69434;SDS011;56625;54.322;18.582;2024-01-27T02:48:24;0.90;;;0.00;;
69434;SDS011;56625;54.322;18.582;2024-01-27T02:50:53;4.90;;;0.50;;
69434;SDS011;56625;54.322;18.582;2024-01-27T02:53:21;2.40;;;0.20;;
69434;SDS011;56625;54.322;18.582;2024-01-27T02:55:49;1.80;;;0.10;;
69434;SDS011;56625;54.322;18.582;2024-01-27T02:58:18;2.60;;;0.20;;
69434;SDS011;56625;54.322;18.582;2024-01-27T03:00:46;2.00;;;0.20;;
69434;SDS011;56625;54.322;18.582;2024-01-27T03:03:14;1.70;;;0.20;;
69434;SDS011;56625;54.322;18.582;2024-01-27T03:05:43;2.90;;;0.10;;
69434;SDS011;56625;54.322;18.582;2024-01-27T03:08:11;2.00;;;0.10;;
69434;SDS011;56625;54.322;18.582;2024-01-27T03:10:40;0.90;;;0.00;;
69434;SDS011;56625;54.322;18.582;2024-01-27T03:13:08;0.30;;;0.00;;
69434;SDS011;56625;54.322;18.582;2024-01-27T03:15:36;2.60;;;0.20;;
69434;SDS011;56625;54.322;18.582;2024-01-27T03:18:05;1.50;;;0.00;;
69434;SDS011;56625;54.322;18.582;2024-01-27T03:20:33;4.00;;;0.10;;
69434;SDS011;56625;54.322;18.582;2024-01-27T03:23:01;1.60;;;0.20;;
69434;SDS011;56625;54.322;18.582;2024-01-27T03:25:29;1.00;;;0.10;;
69434;SDS011;56625;54.322;18.582;2024-01-27T03:27:57;3.70;;;0.20;;
69434;SDS011;56625;54.322;18.582;2024-01-27T03:30:25;4.30;;;0.40;;
69434;SDS011;56625;54.322;18.582;2024-01-27T03:32:54;1.70;;;0.10;;
69434;SDS011;56625;54.322;18.582;2024-01-27T03:35:22;2.30;;;0.30;;
69434;SDS011;56625;54.322;18.582;2024-01-27T03:37:50;4.50;;;0.20;;
69434;SDS011;56625;54.322;18.582;2024-01-27T03:40:19;0.30;;;0.00;;
69434;SDS011;56625;54.322;18.582;2024-01-27T03:42:47;3.70;;;0.30;;
69434;SDS011;56625;54.322;18.582;2024-01-27T03:45:15;3.20;;;0.40;;
69434;SDS011;56625;54.322;18.582;2024-01-27T03:47:43;3.90;;;0.30;;
69434;SDS011;56625;54.322;18.582;2024-01-27T03:50:14;4.90;;;0.30;;
69434;SDS011;56625;54.322;18.582;2024-01-27T03:52:42;2.20;;;0.20;;
69434;SDS011;56625;54.322;18.582;2024-01-27T03:55:10;3.50;;;0.20;;
69434;SDS011;56625;54.322;18.582;2024-01-27T03:57:38;1.80;;;0.00;;
69434;SDS011;56625;54.322;18.582;2024-01-27T04:00:07;3.10;;;0.10;;
69434;SDS011;56625;54.322;18.582;2024-01-27T04:02:38;3.10;;;0.10;;
69434;SDS011;56625;54.322;18.582;2024-01-27T04:05:06;3.40;;;0.10;;
69434;SDS011;56625;54.322;18.582;2024-01-27T04:07:35;1.40;;;0.10;;
69434;SDS011;56625;54.322;18.582;2024-01-27T04:10:03;1.80;;;0.10;;
69434;SDS011;56625;54.322;18.582;2024-01-27T04:12:32;1.30;;;0.10;;
69434;SDS011;56625;54.322;18.582;2024-01-27T04:15:00;1.20;;;0.50;;
69434;SDS011;56625;54.322;18.582;2024-01-27T04:17:28;2.60;;;0.00;;
69434;SDS011;56625;54.322;18.582;2024-01-27T04:19:56;1.50;;;0.10;;
69434;SDS011;56625;54.322;18.582;2024-01-27T04:22:25;0.90;;;0.00;;
69434;SDS011;56625;54.322;18.582;2024-01-27T04:24:53;1.90;;;0.10;;
69434;SDS011;56625;54.322;18.582;2024-01-27T04:27:21;2.30;;;0.30;;
69434;SDS011;56625;54.322;18.582;2024-01-27T04:29:50;1.80;;;0.20;;
69434;SDS011;56625;54.322;18.582;2024-01-27T04:32:18;3.00;;;0.20;;
69434;SDS011;56625;54.322;18.582;2024-01-27T04:34:46;1.10;;;0.00;;
69434;SDS011;56625;54.322;18.582;2024-01-27T04:37:14;1.30;;;0.10;;
69434;SDS011;56625;54.322;18.582;2024-01-27T04:39:42;1.40;;;0.10;;
69434;SDS011;56625;54.322;18.582;2024-01-27T04:42:10;1.20;;;0.20;;
69434;SDS011;56625;54.322;18.582;2024-01-27T04:44:42;3.20;;;0.50;;
69434;SDS011;56625;54.322;18.582;2024-01-27T04:47:10;2.20;;;0.20;;
69434;SDS011;56625;54.322;18.582;2024-01-27T04:49:38;1.70;;;0.20;;
69434;SDS011;56625;54.322;18.582;2024-01-27T04:52:06;1.10;;;0.00;;
69434;SDS011;56625;54.322;18.582;2024-01-27T04:54:34;1.50;;;0.20;;
69434;SDS011;56625;54.322;18.582;2024-01-27T04:57:02;0.80;;;0.10;;
69434;SDS011;56625;54.322;18.582;2024-01-27T04:59:31;0.40;;;0.00;;
69434;SDS011;56625;54.322;18.582;2024-01-27T05:01:59;1.20;;;0.20;;
69434;SDS011;56625;54.322;18.582;2024-01-27T05:04:27;0.80;;;0.00;;
69434;SDS011;56625;54.322;18.582;2024-01-27T05:06:55;3.20;;;0.70;;
69434;SDS011;56625;54.322;18.582;2024-01-27T05:09:23;1.00;;;0.00;;
69434;SDS011;56625;54.322;18.582;2024-01-27T05:11:53;1.30;;;0.10;;
69434;SDS011;56625;54.322;18.582;2024-01-27T05:14:21;0.80;;;0.10;;
69434;SDS011;56625;54.322;18.582;2024-01-27T05:16:49;1.40;;;0.10;;
69434;SDS011;56625;54.322;18.582;2024-01-27T05:19:18;2.00;;;0.20;;
69434;SDS011;56625;54.322;18.582;2024-01-27T05:21:47;0.40;;;0.00;;
69434;SDS011;56625;54.322;18.582;2024-01-27T05:24:15;2.20;;;0.10;;
69434;SDS011;56625;54.322;18.582;2024-01-27T05:26:43;0.50;;;0.00;;
69434;SDS011;56625;54.322;18.582;2024-01-27T05:29:11;0.40;;;0.00;;
69434;SDS011;56625;54.322;18.582;2024-01-27T05:31:39;0.40;;;0.00;;
69434;SDS011;56625;54.322;18.582;2024-01-27T05:34:07;0.50;;;0.00;;
69434;SDS011;56625;54.322;18.582;2024-01-27T05:36:35;0.10;;;0.00;;
69434;SDS011;56625;54.322;18.582;2024-01-27T05:39:04;0.10;;;0.00;;
69434;SDS011;56625;54.322;18.582;2024-01-27T05:41:32;0.10;;;0.00;;
69434;SDS011;56625;54.322;18.582;2024-01-27T05:44:00;0.20;;;0.00;;
69434;SDS011;56625;54.322;18.582;2024-01-27T05:46:28;0.10;;;0.00;;
69434;SDS011;56625;54.322;18.582;2024-01-27T05:48:56;0.90;;;0.00;;
69434;SDS011;56625;54.322;18.582;2024-01-27T05:51:30;0.40;;;0.00;;
69434;SDS011;56625;54.322;18.582;2024-01-27T05:53:58;0.10;;;0.00;;
69434;SDS011;56625;54.322;18.582;2024-01-27T05:56:26;0.50;;;0.00;;
69434;SDS011;56625;54.322;18.582;2024-01-27T05:58:54;0.40;;;0.00;;
69434;SDS011;56625;54.322;18.582;2024-01-27T06:01:22;0.60;;;0.00;;
69434;SDS011;56625;54.322;18.582;2024-01-27T06:03:50;0.20;;;0.00;;
69434;SDS011;56625;54.322;18.582;2024-01-27T06:06:18;0.60;;;0.10;;
69434;SDS011;56625;54.322;18.582;2024-01-27T06:08:46;0.80;;;0.10;;
69434;SDS011;56625;54.322;18.582;2024-01-27T06:11:23;1.60;;;0.10;;
69434;SDS011;56625;54.322;18.582;2024-01-27T06:13:52;0.60;;;0.00;;
69434;SDS011;56625;54.322;18.582;2024-01-27T06:16:20;1.10;;;0.10;;
69434;SDS011;56625;54.322;18.582;2024-01-27T06:18:48;2.60;;;0.30;;
69434;SDS011;56625;54.322;18.582;2024-01-27T06:21:16;1.20;;;0.10;;
69434;SDS011;56625;54.322;18.582;2024-01-27T06:23:44;1.50;;;0.10;;
69434;SDS011;56625;54.322;18.582;2024-01-27T06:26:13;1.60;;;0.10;;
69434;SDS011;56625;54.322;18.582;2024-01-27T06:28:41;0.60;;;0.00;;
69434;SDS011;56625;54.322;18.582;2024-01-27T06:31:09;1.20;;;0.10;;
69434;SDS011;56625;54.322;18.582;2024-01-27T06:33:38;2.50;;;0.20;;
69434;SDS011;56625;54.322;18.582;2024-01-27T06:36:06;1.40;;;0.10;;
69434;SDS011;56625;54.322;18.582;2024-01-27T06:38:37;1.70;;;0.10;;
69434;SDS011;56625;54.322;18.582;2024-01-27T06:41:05;2.60;;;0.20;;
69434;SDS011;56625;54.322;18.582;2024-01-27T06:43:33;3.10;;;0.20;;
69434;SDS011;56625;54.322;18.582;2024-01-27T06:46:01;1.80;;;0.20;;
69434;SDS011;56625;54.322;18.582;2024-01-27T06:48:29;3.40;;;0.40;;
69434;SDS011;56625;54.322;18.582;2024-01-27T06:50:57;2.10;;;0.30;;
69434;SDS011;56625;54.322;18.582;2024-01-27T06:53:25;2.30;;;0.30;;
69434;SDS011;56625;54.322;18.582;2024-01-27T06:55:54;1.70;;;0.20;;
69434;SDS011;56625;54.322;18.582;2024-01-27T06:58:22;2.80;;;0.20;;
69434;SDS011;56625;54.322;18.582;2024-01-27T07:00:51;2.00;;;0.30;;
69434;SDS011;56625;54.322;18.582;2024-01-27T07:03:19;2.40;;;0.20;;
69434;SDS011;56625;54.322;18.582;2024-01-27T07:05:48;2.80;;;0.50;;
69434;SDS011;56625;54.322;18.582;2024-01-27T07:08:16;2.10;;;0.30;;
69434;SDS011;56625;54.322;18.582;2024-01-27T07:10:44;1.50;;;0.10;;
69434;SDS011;56625;54.322;18.582;2024-01-27T07:13:13;3.80;;;0.20;;
69434;SDS011;56625;54.322;18.582;2024-01-27T07:15:41;2.70;;;0.20;;
69434;SDS011;56625;54.322;18.582;2024-01-27T07:18:10;0.40;;;0.00;;
69434;SDS011;56625;54.322;18.582;2024-01-27T07:20:39;0.90;;;0.00;;
69434;SDS011;56625;54.322;18.582;2024-01-27T07:23:07;1.90;;;0.20;;
69434;SDS011;56625;54.322;18.582;2024-01-27T07:25:36;2.80;;;0.20;;
69434;SDS011;56625;54.322;18.582;2024-01-27T07:28:04;0.90;;;0.10;;
69434;SDS011;56625;54.322;18.582;2024-01-27T07:30:32;2.50;;;0.30;;
69434;SDS011;56625;54.322;18.582;2024-01-27T07:33:00;2.70;;;0.30;;
69434;SDS011;56625;54.322;18.582;2024-01-27T07:35:28;2.90;;;0.30;;
69434;SDS011;56625;54.322;18.582;2024-01-27T07:37:57;1.80;;;0.20;;
69434;SDS011;56625;54.322;18.582;2024-01-27T07:40:25;1.40;;;0.30;;
69434;SDS011;56625;54.322;18.582;2024-01-27T07:42:53;1.70;;;0.10;;
69434;SDS011;56625;54.322;18.582;2024-01-27T07:45:21;2.50;;;0.30;;
69434;SDS011;56625;54.322;18.582;2024-01-27T07:47:50;1.10;;;0.20;;
69434;SDS011;56625;54.322;18.582;2024-01-27T07:50:18;1.00;;;0.10;;
69434;SDS011;56625;54.322;18.582;2024-01-27T07:52:46;2.00;;;0.30;;
69434;SDS011;56625;54.322;18.582;2024-01-27T07:55:15;1.50;;;0.10;;
69434;SDS011;56625;54.322;18.582;2024-01-27T07:57:48;1.20;;;0.10;;
69434;SDS011;56625;54.322;18.582;2024-01-27T08:00:18;1.20;;;0.20;;
69434;SDS011;56625;54.322;18.582;2024-01-27T08:02:48;1.90;;;0.20;;
69434;SDS011;56625;54.322;18.582;2024-01-27T08:05:24;2.80;;;0.30;;
69434;SDS011;56625;54.322;18.582;2024-01-27T08:08:11;2.00;;;0.20;;
69434;SDS011;56625;54.322;18.582;2024-01-27T08:10:46;2.10;;;0.30;;
69434;SDS011;56625;54.322;18.582;2024-01-27T08:13:16;2.90;;;0.30;;
69434;SDS011;56625;54.322;18.582;2024-01-27T08:15:45;2.40;;;0.30;;
69434;SDS011;56625;54.322;18.582;2024-01-27T08:18:16;2.40;;;0.20;;
69434;SDS011;56625;54.322;18.582;2024-01-27T08:20:47;1.60;;;0.20;;
69434;SDS011;56625;54.322;18.582;2024-01-27T08:23:18;2.50;;;0.20;;
69434;SDS011;56625;54.322;18.582;2024-01-27T08:25:47;1.90;;;0.20;;
69434;SDS011;56625;54.322;18.582;2024-01-27T08:28:22;1.70;;;0.20;;
69434;SDS011;56625;54.322;18.582;2024-01-27T08:30:54;2.40;;;0.30;;
69434;SDS011;56625;54.322;18.582;2024-01-27T08:33:23;1.20;;;0.10;;
69434;SDS011;56625;54.322;18.582;2024-01-27T08:35:53;3.10;;;0.20;;
69434;SDS011;56625;54.322;18.582;2024-01-27T08:38:22;2.10;;;0.20;;
69434;SDS011;56625;54.322;18.582;2024-01-27T08:40:52;3.70;;;0.50;;
69434;SDS011;56625;54.322;18.582;2024-01-27T08:43:21;2.30;;;0.30;;
69434;SDS011;56625;54.322;18.582;2024-01-27T08:45:49;3.00;;;0.40;;
69434;SDS011;56625;54.322;18.582;2024-01-27T08:48:18;2.00;;;0.20;;
69434;SDS011;56625;54.322;18.582;2024-01-27T08:50:46;1.40;;;0.10;;
69434;SDS011;56625;54.322;18.582;2024-01-27T08:53:15;3.20;;;0.50;;
69434;SDS011;56625;54.322;18.582;2024-01-27T08:55:43;3.50;;;0.40;;
69434;SDS011;56625;54.322;18.582;2024-01-27T08:58:11;2.40;;;0.20;;
69434;SDS011;56625;54.322;18.582;2024-01-27T09:00:39;1.80;;;0.20;;
69434;SDS011;56625;54.322;18.582;2024-01-27T09:03:08;1.00;;;0.20;;
69434;SDS011;56625;54.322;18.582;2024-01-27T09:05:36;2.70;;;0.30;;
69434;SDS011;56625;54.322;18.582;2024-01-27T09:08:05;2.20;;;0.30;;
69434;SDS011;56625;54.322;18.582;2024-01-27T09:10:35;1.60;;;0.10;;
69434;SDS011;56625;54.322;18.582;2024-01-27T09:13:04;2.80;;;0.60;;
69434;SDS011;56625;54.322;18.582;2024-01-27T09:15:33;4.20;;;0.70;;
69434;SDS011;56625;54.322;18.582;2024-01-27T09:18:03;2.10;;;0.30;;
69434;SDS011;56625;54.322;18.582;2024-01-27T09:20:36;3.30;;;0.50;;
69434;SDS011;56625;54.322;18.582;2024-01-27T09:23:07;4.20;;;0.40;;
69434;SDS011;56625;54.322;18.582;2024-01-27T09:25:38;1.10;;;0.20;;
69434;SDS011;56625;54.322;18.582;2024-01-27T09:28:11;3.30;;;0.20;;
69434;SDS011;56625;54.322;18.582;2024-01-27T09:30:40;1.50;;;0.20;;
69434;SDS011;56625;54.322;18.582;2024-01-27T09:33:09;3.00;;;0.30;;
69434;SDS011;56625;54.322;18.582;2024-01-27T09:35:41;2.60;;;0.30;;
69434;SDS011;56625;54.322;18.582;2024-01-27T09:38:13;3.60;;;0.40;;
69434;SDS011;56625;54.322;18.582;2024-01-27T09:40:42;3.80;;;0.50;;
69434;SDS011;56625;54.322;18.582;2024-01-27T09:43:13;1.80;;;0.50;;
69434;SDS011;56625;54.322;18.582;2024-01-27T09:45:45;4.20;;;0.50;;
69434;SDS011;56625;54.322;18.582;2024-01-27T09:48:17;5.50;;;0.60;;
69434;SDS011;56625;54.322;18.582;2024-01-27T09:50:48;4.00;;;0.70;;
69434;SDS011;56625;54.322;18.582;2024-01-27T09:53:19;3.00;;;0.50;;
69434;SDS011;56625;54.322;18.582;2024-01-27T09:55:50;4.00;;;0.70;;
69434;SDS011;56625;54.322;18.582;2024-01-27T09:58:19;6.10;;;0.70;;
69434;SDS011;56625;54.322;18.582;2024-01-27T10:00:47;4.20;;;0.70;;
69434;SDS011;56625;54.322;18.582;2024-01-27T10:03:16;4.30;;;0.60;;
69434;SDS011;56625;54.322;18.582;2024-01-27T10:05:48;2.50;;;0.30;;
69434;SDS011;56625;54.322;18.582;2024-01-27T10:08:16;3.50;;;0.40;;
69434;SDS011;56625;54.322;18.582;2024-01-27T10:10:44;2.00;;;0.40;;
69434;SDS011;56625;54.322;18.582;2024-01-27T10:13:16;4.10;;;0.40;;
69434;SDS011;56625;54.322;18.582;2024-01-27T10:15:45;4.00;;;0.60;;
69434;SDS011;56625;54.322;18.582;2024-01-27T10:18:13;2.40;;;0.30;;
69434;SDS011;56625;54.322;18.582;2024-01-27T10:20:43;4.50;;;0.50;;
69434;SDS011;56625;54.322;18.582;2024-01-27T10:23:12;2.60;;;0.30;;
69434;SDS011;56625;54.322;18.582;2024-01-27T10:25:41;5.90;;;0.40;;
69434;SDS011;56625;54.322;18.582;2024-01-27T10:28:09;3.00;;;0.50;;
69434;SDS011;56625;54.322;18.582;2024-01-27T10:30:37;4.90;;;0.40;;
69434;SDS011;56625;54.322;18.582;2024-01-27T10:33:08;3.80;;;0.60;;
69434;SDS011;56625;54.322;18.582;2024-01-27T10:35:42;2.00;;;0.50;;
69434;SDS011;56625;54.322;18.582;2024-01-27T10:38:10;3.30;;;0.40;;
69434;SDS011;56625;54.322;18.582;2024-01-27T10:40:39;3.20;;;0.50;;
69434;SDS011;56625;54.322;18.582;2024-01-27T10:43:08;1.60;;;0.20;;
69434;SDS011;56625;54.322;18.582;2024-01-27T10:45:38;2.00;;;0.40;;
69434;SDS011;56625;54.322;18.582;2024-01-27T10:48:08;3.90;;;0.60;;
69434;SDS011;56625;54.322;18.582;2024-01-27T10:50:40;3.90;;;0.40;;
69434;SDS011;56625;54.322;18.582;2024-01-27T10:53:22;3.70;;;0.50;;
69434;SDS011;56625;54.322;18.582;2024-01-27T10:55:59;2.90;;;0.20;;
69434;SDS011;56625;54.322;18.582;2024-01-27T10:58:29;6.20;;;0.70;;
69434;SDS011;56625;54.322;18.582;2024-01-27T11:00:59;4.70;;;0.70;;
69434;SDS011;56625;54.322;18.582;2024-01-27T11:03:28;2.50;;;0.30;;
69434;SDS011;56625;54.322;18.582;2024-01-27T11:05:57;3.40;;;0.30;;
69434;SDS011;56625;54.322;18.582;2024-01-27T11:08:28;6.00;;;0.60;;
69434;SDS011;56625;54.322;18.582;2024-01-27T11:10:58;2.30;;;0.20;;
69434;SDS011;56625;54.322;18.582;2024-01-27T11:13:30;2.50;;;0.20;;
69434;SDS011;56625;54.322;18.582;2024-01-27T11:16:00;5.20;;;0.40;;
69434;SDS011;56625;54.322;18.582;2024-01-27T11:18:29;3.10;;;0.40;;
69434;SDS011;56625;54.322;18.582;2024-01-27T11:20:58;3.20;;;0.50;;
69434;SDS011;56625;54.322;18.582;2024-01-27T11:23:34;4.60;;;0.40;;
69434;SDS011;56625;54.322;18.582;2024-01-27T11:26:06;3.60;;;0.30;;
69434;SDS011;56625;54.322;18.582;2024-01-27T11:28:36;4.20;;;0.40;;
69434;SDS011;56625;54.322;18.582;2024-01-27T11:31:08;3.50;;;0.50;;
69434;SDS011;56625;54.322;18.582;2024-01-27T11:33:44;3.00;;;0.30;;
69434;SDS011;56625;54.322;18.582;2024-01-27T11:36:21;4.50;;;0.50;;
69434;SDS011;56625;54.322;18.582;2024-01-27T11:38:54;4.70;;;0.70;;
69434;SDS011;56625;54.322;18.582;2024-01-27T11:41:28;4.70;;;0.40;;
69434;SDS011;56625;54.322;18.582;2024-01-27T11:43:59;4.60;;;0.40;;
69434;SDS011;56625;54.322;18.582;2024-01-27T11:46:28;6.60;;;0.60;;
69434;SDS011;56625;54.322;18.582;2024-01-27T11:48:56;5.80;;;0.40;;
69434;SDS011;56625;54.322;18.582;2024-01-27T11:51:25;3.40;;;0.40;;
69434;SDS011;56625;54.322;18.582;2024-01-27T11:53:53;5.10;;;0.80;;
69434;SDS011;56625;54.322;18.582;2024-01-27T11:56:21;4.60;;;0.70;;
69434;SDS011;56625;54.322;18.582;2024-01-27T11:58:49;4.60;;;0.50;;
69434;SDS011;56625;54.322;18.582;2024-01-27T12:01:18;4.50;;;0.40;;
69434;SDS011;56625;54.322;18.582;2024-01-27T12:03:46;3.90;;;0.30;;
69434;SDS011;56625;54.322;18.582;2024-01-27T12:06:17;7.00;;;0.70;;
69434;SDS011;56625;54.322;18.582;2024-01-27T12:08:45;2.80;;;0.50;;
69434;SDS011;56625;54.322;18.582;2024-01-27T12:11:17;6.00;;;0.80;;
69434;SDS011;56625;54.322;18.582;2024-01-27T12:13:52;7.50;;;0.70;;
69434;SDS011;56625;54.322;18.582;2024-01-27T12:16:22;5.20;;;0.60;;
69434;SDS011;56625;54.322;18.582;2024-01-27T12:18:53;6.00;;;0.80;;
69434;SDS011;56625;54.322;18.582;2024-01-27T12:21:22;8.70;;;1.00;;
69434;SDS011;56625;54.322;18.582;2024-01-27T12:23:53;6.90;;;1.20;;
69434;SDS011;56625;54.322;18.582;2024-01-27T12:26:29;4.80;;;0.60;;
69434;SDS011;56625;54.322;18.582;2024-01-27T12:28:59;9.40;;;0.80;;
69434;SDS011;56625;54.322;18.582;2024-01-27T12:31:27;3.90;;;0.40;;
69434;SDS011;56625;54.322;18.582;2024-01-27T12:33:56;4.20;;;0.50;;
69434;SDS011;56625;54.322;18.582;2024-01-27T12:36:28;3.90;;;0.30;;
69434;SDS011;56625;54.322;18.582;2024-01-27T12:39:02;8.60;;;0.60;;
69434;SDS011;56625;54.322;18.582;2024-01-27T12:41:36;3.50;;;0.40;;
69434;SDS011;56625;54.322;18.582;2024-01-27T12:44:06;2.60;;;0.30;;
69434;SDS011;56625;54.322;18.582;2024-01-27T12:46:34;4.70;;;0.50;;
69434;SDS011;56625;54.322;18.582;2024-01-27T12:49:02;3.70;;;0.40;;
69434;SDS011;56625;54.322;18.582;2024-01-27T12:51:31;4.10;;;0.50;;
69434;SDS011;56625;54.322;18.582;2024-01-27T12:53:59;6.30;;;0.70;;
69434;SDS011;56625;54.322;18.582;2024-01-27T12:56:27;6.80;;;1.00;;
69434;SDS011;56625;54.322;18.582;2024-01-27T12:58:55;6.40;;;0.70;;
69434;SDS011;56625;54.322;18.582;2024-01-27T13:01:24;4.60;;;0.50;;
69434;SDS011;56625;54.322;18.582;2024-01-27T13:03:57;4.60;;;0.50;;
69434;SDS011;56625;54.322;18.582;2024-01-27T13:06:26;5.30;;;0.90;;
69434;SDS011;56625;54.322;18.582;2024-01-27T13:08:55;6.60;;;0.70;;
69434;SDS011;56625;54.322;18.582;2024-01-27T13:11:26;3.80;;;0.30;;
69434;SDS011;56625;54.322;18.582;2024-01-27T13:13:54;6.00;;;0.80;;
69434;SDS011;56625;54.322;18.582;2024-01-27T13:16:26;5.50;;;0.40;;
69434;SDS011;56625;54.322;18.582;2024-01-27T13:18:56;5.80;;;0.60;;
69434;SDS011;56625;54.322;18.582;2024-01-27T13:21:27;3.60;;;0.40;;
69434;SDS011;56625;54.322;18.582;2024-01-27T13:23:58;4.50;;;0.70;;
69434;SDS011;56625;54.322;18.582;2024-01-27T13:26:28;7.60;;;0.90;;
69434;SDS011;56625;54.322;18.582;2024-01-27T13:29:03;7.40;;;0.80;;
69434;SDS011;56625;54.322;18.582;2024-01-27T13:31:33;5.50;;;0.90;;
69434;SDS011;56625;54.322;18.582;2024-01-27T13:34:05;4.80;;;0.60;;
69434;SDS011;56625;54.322;18.582;2024-01-27T13:36:34;8.10;;;1.20;;
69434;SDS011;56625;54.322;18.582;2024-01-27T13:39:05;9.90;;;0.90;;
69434;SDS011;56625;54.322;18.582;2024-01-27T13:41:33;8.10;;;0.60;;
69434;SDS011;56625;54.322;18.582;2024-01-27T13:44:01;10.00;;;0.80;;
69434;SDS011;56625;54.322;18.582;2024-01-27T13:46:30;6.70;;;0.80;;
69434;SDS011;56625;54.322;18.582;2024-01-27T13:49:00;9.90;;;1.00;;
69434;SDS011;56625;54.322;18.582;2024-01-27T13:51:28;5.20;;;1.00;;
69434;SDS011;56625;54.322;18.582;2024-01-27T13:53:57;5.00;;;0.60;;
69434;SDS011;56625;54.322;18.582;2024-01-27T13:56:25;6.60;;;0.90;;
69434;SDS011;56625;54.322;18.582;2024-01-27T13:58:53;5.70;;;0.90;;
69434;SDS011;56625;54.322;18.582;2024-01-27T14:01:22;5.80;;;0.70;;
69434;SDS011;56625;54.322;18.582;2024-01-27T14:03:51;9.10;;;0.90;;
69434;SDS011;56625;54.322;18.582;2024-01-27T14:06:19;7.20;;;0.70;;
69434;SDS011;56625;54.322;18.582;2024-01-27T14:08:52;6.90;;;0.80;;
69434;SDS011;56625;54.322;18.582;2024-01-27T14:11:21;8.50;;;1.00;;
69434;SDS011;56625;54.322;18.582;2024-01-27T14:13:50;6.10;;;0.80;;
69434;SDS011;56625;54.322;18.582;2024-01-27T14:16:19;6.80;;;0.90;;
69434;SDS011;56625;54.322;18.582;2024-01-27T14:18:53;9.40;;;1.10;;
69434;SDS011;56625;54.322;18.582;2024-01-27T14:21:21;5.70;;;1.10;;
69434;SDS011;56625;54.322;18.582;2024-01-27T14:23:51;8.30;;;1.00;;
69434;SDS011;56625;54.322;18.582;2024-01-27T14:26:25;8.40;;;1.30;;
69434;SDS011;56625;54.322;18.582;2024-01-27T14:28:55;9.70;;;1.80;;
69434;SDS011;56625;54.322;18.582;2024-01-27T14:31:24;7.70;;;1.00;;
69434;SDS011;56625;54.322;18.582;2024-01-27T14:33:53;10.50;;;1.10;;
69434;SDS011;56625;54.322;18.582;2024-01-27T14:36:21;11.20;;;1.20;;
69434;SDS011;56625;54.322;18.582;2024-01-27T14:38:51;5.00;;;0.80;;
69434;SDS011;56625;54.322;18.582;2024-01-27T14:41:20;8.20;;;1.10;;
69434;SDS011;56625;54.322;18.582;2024-01-27T14:43:51;8.00;;;1.30;;